Time;durP1;ratioP1;P1;durP2;ratioP2;P2;SDS_P1;SDS_P2;PMS_P1;PMS_P2;Temp;Humidity;BMP_temperature;BMP_pressure;BME280_temperature;BME280_humidity;BME280_pressure;Samples;Min_cycle;Max_cycle;Signal;HPM_P1;HPM_P2
2022/01/17 00:00:19;;;;;;;54.28;20.77;;;;;;;5.36;100.00;103029.72;4997695;28;20465;-76
2022/01/17 00:02:46;;;;;;;77.57;26.25;;;;;;;5.38;100.00;103027.91;4994325;28;20033;-77
2022/01/17 00:05:12;;;;;;;64.75;23.08;;;;;;;5.28;100.00;103021.91;4996185;28;20476;-76
2022/01/17 00:07:37;;;;;;;45.10;18.70;;;;;;;5.27;100.00;103030.78;4995088;28;20045;-76
2022/01/17 00:10:05;;;;;;;58.25;20.65;;;;;;;5.27;100.00;103030.78;4998274;28;20044;-76
2022/01/17 00:12:33;;;;;;;59.47;20.85;;;;;;;5.20;100.00;103031.81;4980766;28;20463;-77
2022/01/17 00:14:58;;;;;;;50.88;18.05;;;;;;;5.27;100.00;103028.13;4996301;28;20032;-76
2022/01/17 00:17:35;;;;;;;47.08;19.10;;;;;;;5.32;100.00;103034.25;4996282;28;20034;-76
2022/01/17 00:20:09;;;;;;;47.95;18.45;;;;;;;5.45;100.00;103026.88;4998286;28;20033;-77
2022/01/17 00:22:35;;;;;;;43.67;15.82;;;;;;;5.39;100.00;103024.34;4993591;28;20033;-75
2022/01/17 00:25:01;;;;;;;60.97;21.75;;;;;;;5.38;100.00;103014.59;4997762;28;20053;-77
2022/01/17 00:27:26;;;;;;;65.70;25.25;;;;;;;5.46;100.00;103020.66;4998513;28;20025;-77
2022/01/17 00:29:52;;;;;;;48.65;19.17;;;;;;;5.31;100.00;103008.53;4999209;28;20052;-76
2022/01/17 00:32:18;;;;;;;50.20;20.58;;;;;;;5.46;100.00;103025.97;4998943;28;20030;-77
2022/01/17 00:34:44;;;;;;;50.55;17.75;;;;;;;5.31;100.00;103037.81;4997037;28;20037;-74
2022/01/17 00:37:09;;;;;;;39.08;16.00;;;;;;;5.38;100.00;103033.25;4996506;28;20641;-76
2022/01/17 00:39:35;;;;;;;39.30;15.75;;;;;;;5.35;100.00;103034.19;5000217;28;20034;-75
2022/01/17 00:42:00;;;;;;;48.80;17.23;;;;;;;5.27;100.00;103022.81;5000100;28;20481;-76
2022/01/17 00:44:25;;;;;;;37.90;15.20;;;;;;;5.23;100.00;103014.00;4999595;28;20037;-76
2022/01/17 00:46:51;;;;;;;40.80;16.83;;;;;;;5.43;100.00;103023.38;4997608;28;20072;-77
2022/01/17 00:49:19;;;;;;;38.90;15.98;;;;;;;5.28;100.00;103018.38;4982553;28;20037;-75
2022/01/17 00:51:45;;;;;;;54.40;18.50;;;;;;;5.32;100.00;103033.34;4998257;28;20543;-77
2022/01/17 00:54:10;;;;;;;36.25;14.35;;;;;;;5.37;100.00;103035.03;4998570;28;20150;-76
2022/01/17 00:56:35;;;;;;;38.75;15.15;;;;;;;5.34;100.00;103026.22;4983684;28;20026;-76
2022/01/17 00:59:01;;;;;;;38.50;14.38;;;;;;;5.37;100.00;103031.47;5001630;28;20381;-75
2022/01/17 01:01:26;;;;;;;35.20;14.77;;;;;;;5.31;100.00;103040.50;4999164;28;20472;-75
2022/01/17 01:03:51;;;;;;;34.80;12.60;;;;;;;5.34;100.00;103048.41;4995955;28;20064;-75
2022/01/17 01:06:17;;;;;;;35.28;12.40;;;;;;;5.33;100.00;103054.66;4996728;28;20080;-75
2022/01/17 01:08:42;;;;;;;31.88;12.95;;;;;;;5.30;100.00;103051.19;4983672;28;20033;-75
2022/01/17 01:11:08;;;;;;;30.40;11.70;;;;;;;5.48;100.00;103055.22;4999140;28;20021;-76
2022/01/17 01:13:34;;;;;;;33.85;11.02;;;;;;;5.42;100.00;103044.72;4995112;28;20297;-76
2022/01/17 01:21:44;;;;;;;26.02;8.95;;;;;;;5.33;100.00;103044.00;4994704;28;20033;-77
2022/01/17 01:27:43;;;;;;;23.95;8.65;;;;;;;5.32;100.00;103044.00;4997386;28;20072;-75
2022/01/17 01:29:58;;;;;;;20.88;8.00;;;;;;;5.39;100.00;103057.19;4998519;28;20084;-75
2022/01/17 01:32:30;;;;;;;24.60;7.65;;;;;;;5.45;100.00;103057.97;4999579;28;20030;-75
2022/01/17 01:34:58;;;;;;;26.05;8.73;;;;;;;5.41;100.00;103051.81;4999633;28;20049;-75
2022/01/17 01:37:23;;;;;;;20.20;7.05;;;;;;;5.44;100.00;103062.44;4997014;28;20092;-75
2022/01/17 01:39:51;;;;;;;32.90;7.80;;;;;;;5.44;100.00;103061.53;5002587;28;20079;-76
2022/01/17 01:42:18;;;;;;;20.67;7.32;;;;;;;5.40;100.00;103076.72;4997990;28;20030;-74
2022/01/17 01:44:45;;;;;;;22.48;6.85;;;;;;;5.44;100.00;103056.19;4999581;28;20096;-75
2022/01/17 01:47:11;;;;;;;18.80;7.15;;;;;;;5.42;100.00;103050.06;5003488;28;20091;-75
2022/01/17 01:49:36;;;;;;;17.13;7.35;;;;;;;5.44;100.00;103049.09;4998183;28;20481;-76
2022/01/17 01:52:02;;;;;;;18.67;6.32;;;;;;;5.50;100.00;103059.63;4998504;28;20581;-75
2022/01/17 01:54:28;;;;;;;20.40;6.22;;;;;;;5.36;100.00;103049.28;4996891;28;20131;-75
2022/01/17 01:56:53;;;;;;;18.17;5.28;;;;;;;5.41;100.00;103054.50;5002610;28;20383;-76
2022/01/17 01:59:22;;;;;;;21.52;5.13;;;;;;;5.42;100.00;103055.38;5000288;28;20054;-75
2022/01/17 02:01:48;;;;;;;14.90;5.95;;;;;;;5.47;100.00;103056.13;4996964;28;20030;-75
2022/01/17 02:04:14;;;;;;;20.17;4.82;;;;;;;5.38;100.00;103058.09;5001133;28;20420;-75
2022/01/17 02:06:39;;;;;;;13.60;3.55;;;;;;;5.53;100.00;103064.00;4999714;28;20590;-76
2022/01/17 02:09:05;;;;;;;15.13;3.30;;;;;;;5.47;100.00;103067.69;5003974;28;20384;-75
2022/01/17 02:11:32;;;;;;;11.00;3.08;;;;;;;5.42;100.00;103066.03;5003145;28;20030;-76
2022/01/17 02:13:57;;;;;;;18.27;4.97;;;;;;;5.37;100.00;103055.47;5020996;28;20037;-75
2022/01/17 02:16:23;;;;;;;11.23;3.35;;;;;;;5.35;100.00;103066.16;4985787;28;20037;-74
2022/01/17 02:18:49;;;;;;;8.02;2.75;;;;;;;5.33;100.00;103053.75;5000408;28;20022;-76
2022/01/17 02:23:40;;;;;;;9.25;2.60;;;;;;;5.33;100.00;103059.97;4998613;28;20118;-75
2022/01/17 02:26:06;;;;;;;13.65;2.50;;;;;;;5.19;100.00;103049.59;4998956;28;20523;-76
2022/01/17 02:28:35;;;;;;;7.65;1.80;;;;;;;5.04;100.00;103045.44;4983030;28;20453;-74
2022/01/17 02:31:05;;;;;;;15.75;2.95;;;;;;;5.09;100.00;103061.31;5010547;28;20064;-75
2022/01/17 02:33:34;;;;;;;11.32;2.13;;;;;;;4.99;100.00;103062.44;4997303;28;20346;-74
2022/01/17 02:36:00;;;;;;;7.60;2.28;;;;;;;4.85;100.00;103055.56;4983453;28;20029;-76
2022/01/17 02:38:25;;;;;;;10.32;2.88;;;;;;;4.87;100.00;103056.41;4996719;28;20029;-76
2022/01/17 02:40:52;;;;;;;9.40;2.47;;;;;;;4.72;100.00;103065.53;4998248;28;20057;-75
2022/01/17 02:43:20;;;;;;;5.35;1.65;;;;;;;4.78;100.00;103073.44;4999590;28;20055;-77
2022/01/17 02:48:17;;;;;;;7.97;2.10;;;;;;;4.60;100.00;103082.59;4998681;28;20034;-76
2022/01/17 02:50:43;;;;;;;12.77;2.25;;;;;;;4.44;100.00;103067.81;4995826;28;20072;-74
2022/01/17 02:53:09;;;;;;;10.77;2.60;;;;;;;4.47;100.00;103068.63;4981166;28;20108;-75
2022/01/17 02:55:34;;;;;;;9.85;2.17;;;;;;;4.44;100.00;103068.66;4995153;28;20029;-75
2022/01/17 02:58:00;;;;;;;9.27;2.25;;;;;;;4.32;100.00;103053.78;4979978;28;20684;-74
2022/01/17 03:00:26;;;;;;;11.27;2.10;;;;;;;4.32;100.00;103061.75;4996654;28;20443;-75
2022/01/17 03:02:51;;;;;;;9.02;1.90;;;;;;;4.48;100.00;103064.19;4995275;28;20369;-75
2022/01/17 03:05:17;;;;;;;10.90;1.73;;;;;;;4.51;100.00;103061.44;4995642;28;20128;-75
2022/01/17 03:07:43;;;;;;;7.53;1.95;;;;;;;4.42;100.00;103037.69;5010786;28;20419;-74
2022/01/17 03:10:16;;;;;;;13.38;2.30;;;;;;;4.49;100.00;103037.53;4993941;28;20033;-75
2022/01/17 03:12:41;;;;;;;5.70;1.40;;;;;;;4.51;100.00;103048.16;4980145;28;20023;-76
2022/01/17 03:15:07;;;;;;;6.18;1.60;;;;;;;4.48;100.00;103067.72;4995063;28;20061;-75
2022/01/17 03:17:33;;;;;;;12.48;1.77;;;;;;;4.45;100.00;103067.75;4979022;28;20061;-75
2022/01/17 03:19:58;;;;;;;10.35;1.67;;;;;;;4.53;100.00;103080.06;4980201;28;20404;-76
2022/01/17 03:22:23;;;;;;;8.55;1.52;;;;;;;4.46;100.00;103079.28;4979786;28;20408;-78
2022/01/17 03:24:49;;;;;;;8.07;1.63;;;;;;;4.37;100.00;103072.31;5004798;28;20042;-76
2022/01/17 03:27:14;;;;;;;12.05;1.60;;;;;;;4.29;100.00;103064.47;4998387;28;20109;-76
2022/01/17 03:29:39;;;;;;;5.63;1.10;;;;;;;4.35;100.00;103064.38;5000765;28;20365;-76
2022/01/17 03:32:05;;;;;;;10.32;1.48;;;;;;;4.16;100.00;103058.47;4996434;28;20180;-75
2022/01/17 03:34:30;;;;;;;13.73;1.67;;;;;;;4.09;100.00;103059.47;4980400;28;20041;-75
2022/01/17 03:36:56;;;;;;;4.32;0.93;;;;;;;4.01;100.00;103066.66;4996336;28;20057;-74
2022/01/17 03:39:21;;;;;;;7.72;1.77;;;;;;;3.99;100.00;103061.34;5004105;28;20116;-76
2022/01/17 03:41:46;;;;;;;8.07;1.70;;;;;;;4.02;100.00;103056.00;4981760;28;20128;-74
2022/01/17 03:44:11;;;;;;;12.10;1.67;;;;;;;3.93;100.00;103052.59;5001572;28;20037;-75
2022/01/17 03:46:37;;;;;;;8.48;1.27;;;;;;;3.88;100.00;103053.53;4980628;28;20057;-75
2022/01/17 03:49:03;;;;;;;9.52;1.58;;;;;;;3.83;100.00;103050.09;4997925;28;20072;-75
2022/01/17 03:51:28;;;;;;;5.13;1.33;;;;;;;3.79;100.00;103058.09;4979758;28;20065;-74
2022/01/17 03:53:53;;;;;;;13.30;2.03;;;;;;;3.86;100.00;103054.47;4996224;28;20299;-76
2022/01/17 03:56:19;;;;;;;3.42;1.40;;;;;;;3.71;100.00;103055.56;4978174;28;20069;-75
2022/01/17 03:58:45;;;;;;;9.68;1.25;;;;;;;3.71;100.00;103083.00;4998309;28;20033;-75
2022/01/17 04:01:11;;;;;;;7.95;1.40;;;;;;;3.60;100.00;103064.53;4993384;28;20022;-76
2022/01/17 04:03:36;;;;;;;3.25;1.05;;;;;;;3.60;100.00;103084.94;4978195;28;20030;-76
2022/01/17 04:06:01;;;;;;;6.78;1.40;;;;;;;3.56;100.00;103078.78;4994145;28;20518;-75
2022/01/17 04:08:27;;;;;;;9.70;1.45;;;;;;;3.48;100.00;103066.47;4977122;28;20132;-75
2022/01/17 04:10:53;;;;;;;4.40;1.10;;;;;;;3.45;100.00;103070.91;4980143;28;20034;-75
2022/01/17 04:13:18;;;;;;;10.00;1.30;;;;;;;3.52;100.00;103076.16;4977631;28;20499;-76
2022/01/17 04:15:44;;;;;;;6.63;1.88;;;;;;;3.43;100.00;103077.16;5004058;28;20073;-77
2022/01/17 04:18:10;;;;;;;6.03;1.83;;;;;;;3.30;100.00;103084.38;4978410;28;20038;-76
2022/01/17 04:20:36;;;;;;;8.50;1.77;;;;;;;3.30;100.00;103079.97;4993747;28;20057;-75
2022/01/17 04:23:06;;;;;;;4.43;1.95;;;;;;;3.26;100.00;103082.66;4978053;28;20079;-76
2022/01/17 04:25:33;;;;;;;8.18;1.80;;;;;;;3.19;100.00;103076.53;4981108;28;20788;-77
2022/01/17 04:28:00;;;;;;;11.13;2.03;;;;;;;3.29;100.00;103080.88;4997384;28;20033;-76
2022/01/17 04:30:26;;;;;;;7.90;2.30;;;;;;;3.19;100.00;103078.28;4982099;28;20036;-76
2022/01/17 04:32:51;;;;;;;8.80;2.00;;;;;;;3.15;100.00;103090.75;4980784;28;20037;-76
2022/01/17 04:35:20;;;;;;;12.38;2.38;;;;;;;3.07;100.00;103080.22;4983712;28;20033;-76
2022/01/17 04:37:47;;;;;;;8.30;2.42;;;;;;;2.97;100.00;103074.13;4982787;28;20030;-76
2022/01/17 04:40:12;;;;;;;8.18;2.58;;;;;;;2.91;100.00;103076.81;4997849;28;20033;-76
2022/01/17 04:42:44;;;;;;;12.98;2.47;;;;;;;2.87;100.00;103088.34;4996109;28;20038;-75
2022/01/17 04:45:11;;;;;;;7.95;2.40;;;;;;;2.76;100.00;103106.16;4985639;28;20038;-75
2022/01/17 04:47:38;;;;;;;5.43;1.77;;;;;;;2.74;100.00;103114.13;4994414;28;20361;-75
2022/01/17 04:50:09;;;;;;;9.73;2.10;;;;;;;2.59;100.00;103109.81;4990043;28;20034;-75
2022/01/17 04:52:36;;;;;;;7.55;2.30;;;;;;;2.71;100.00;103116.78;4976994;28;20029;-75
2022/01/17 04:55:02;;;;;;;6.65;2.22;;;;;;;2.66;100.00;103119.50;4982263;28;20121;-75
2022/01/17 04:57:28;;;;;;;8.07;2.55;;;;;;;2.72;100.00;103128.28;4989922;28;20021;-76
2022/01/17 04:59:54;;;;;;;11.00;2.33;;;;;;;2.80;100.00;103137.06;4979996;28;20040;-75
2022/01/17 05:02:19;;;;;;;13.52;3.40;;;;;;;2.74;100.00;103129.16;4982965;28;20441;-75
2022/01/17 05:04:45;;;;;;;9.70;2.75;;;;;;;2.75;100.00;103131.78;4993682;28;20308;-75
2022/01/17 05:07:11;;;;;;;5.35;2.50;;;;;;;2.76;100.00;103114.13;4978205;28;20117;-76
2022/01/17 05:09:38;;;;;;;12.45;3.08;;;;;;;2.86;100.00;103129.03;4995736;28;20038;-76
2022/01/17 05:12:04;;;;;;;14.43;3.05;;;;;;;2.94;100.00;103124.56;4994762;28;20372;-76
2022/01/17 05:14:30;;;;;;;14.38;3.28;;;;;;;2.93;100.00;103117.50;4982024;28;20084;-76
2022/01/17 05:17:03;;;;;;;10.48;4.47;;;;;;;2.99;100.00;103124.50;4984461;28;20076;-77
2022/01/17 05:19:48;;;;;;;10.65;2.72;;;;;;;2.95;100.00;103117.47;4984590;28;20704;-77
2022/01/17 05:22:14;;;;;;;6.93;2.60;;;;;;;3.06;100.00;103120.03;4998515;28;20428;-76
2022/01/17 05:24:40;;;;;;;9.00;2.78;;;;;;;2.99;100.00;103117.44;4997718;28;20037;-77
2022/01/17 05:27:05;;;;;;;8.38;3.15;;;;;;;2.95;100.00;103114.81;4984065;28;20042;-77
2022/01/17 05:29:31;;;;;;;11.55;3.20;;;;;;;2.91;100.00;103111.31;4999929;28;20587;-77
2022/01/17 05:31:56;;;;;;;25.35;3.90;;;;;;;2.91;100.00;103131.69;4982484;28;20030;-76
2022/01/17 05:34:21;;;;;;;14.68;3.65;;;;;;;2.85;100.00;103127.28;4981622;28;20042;-76
2022/01/17 05:36:46;;;;;;;14.43;3.92;;;;;;;2.80;100.00;103121.13;4999998;28;20057;-76
2022/01/17 05:39:12;;;;;;;14.35;4.28;;;;;;;2.77;100.00;103130.00;4998240;28;20045;-76
2022/01/17 05:41:37;;;;;;;12.25;3.80;;;;;;;2.75;100.00;103122.97;4984578;28;20057;-77
2022/01/17 05:44:02;;;;;;;15.25;4.53;;;;;;;2.80;100.00;103131.75;4986947;28;20060;-77
2022/01/17 05:46:28;;;;;;;14.25;4.18;;;;;;;2.75;100.00;103101.75;4984626;28;20036;-72
2022/01/17 05:48:53;;;;;;;15.23;5.03;;;;;;;2.72;100.00;103128.28;4995474;28;20026;-77
2022/01/17 05:51:18;;;;;;;12.95;4.65;;;;;;;2.64;100.00;103115.09;4995477;28;20030;-75
2022/01/17 05:53:44;;;;;;;13.30;4.20;;;;;;;2.66;100.00;103118.59;4981442;28;20032;-75
2022/01/17 05:56:09;;;;;;;16.48;5.25;;;;;;;2.73;100.00;103115.00;4997901;28;20040;-75
2022/01/17 05:58:35;;;;;;;17.38;5.70;;;;;;;2.74;100.00;103114.13;5004431;28;20040;-74
2022/01/17 06:01:00;;;;;;;15.10;5.00;;;;;;;2.72;100.00;103099.97;5004594;28;20041;-73
2022/01/17 06:03:26;;;;;;;16.27;5.32;;;;;;;2.78;100.00;103107.91;4998258;28;20067;-73
2022/01/17 06:05:52;;;;;;;20.38;5.13;;;;;;;2.88;100.00;103127.25;5003322;28;20139;-75
2022/01/17 06:08:17;;;;;;;27.33;6.22;;;;;;;2.93;100.00;103124.56;5002477;28;20033;-76
2022/01/17 06:10:42;;;;;;;16.23;4.70;;;;;;;2.91;100.00;103121.06;4984167;28;20116;-76
2022/01/17 06:13:08;;;;;;;19.08;5.20;;;;;;;2.84;100.00;103121.13;4998672;28;20447;-77
2022/01/17 06:15:33;;;;;;;21.00;7.43;;;;;;;2.88;100.00;103116.66;5006109;28;20042;-76
2022/01/17 06:17:58;;;;;;;16.17;5.60;;;;;;;2.85;100.00;103109.59;5001476;28;20499;-75
2022/01/17 06:20:24;;;;;;;26.27;6.72;;;;;;;2.90;100.00;103119.31;5001284;28;20489;-76
2022/01/17 06:22:49;;;;;;;23.60;7.68;;;;;;;2.90;100.00;103120.16;4986637;28;20151;-76
2022/01/17 06:25:14;;;;;;;15.80;5.25;;;;;;;2.99;100.00;103136.03;5004625;28;20579;-75
2022/01/17 06:27:40;;;;;;;15.50;5.85;;;;;;;2.89;100.00;103136.13;4986065;28;20038;-76
2022/01/17 06:30:07;;;;;;;16.98;6.50;;;;;;;2.89;100.00;103149.38;5003903;28;20030;-77
2022/01/17 06:32:32;;;;;;;18.23;6.05;;;;;;;2.90;100.00;103146.72;4988754;28;20034;-74
2022/01/17 06:34:58;;;;;;;20.83;6.40;;;;;;;3.06;100.00;103152.78;5003015;28;20071;-76
2022/01/17 06:37:24;;;;;;;20.25;6.90;;;;;;;2.99;100.00;103144.00;5007238;28;20043;-71
2022/01/17 06:39:50;;;;;;;17.80;7.15;;;;;;;2.97;100.00;103124.53;5002236;28;20034;-76
2022/01/17 06:42:15;;;;;;;22.58;7.40;;;;;;;2.95;100.00;103138.69;5018378;28;20064;-75
2022/01/17 06:44:41;;;;;;;17.83;7.20;;;;;;;2.88;100.00;103139.66;5002958;28;20034;-74
2022/01/17 06:47:06;;;;;;;23.67;8.75;;;;;;;2.94;100.00;103136.94;4986895;28;20060;-71
2022/01/17 06:49:32;;;;;;;20.88;6.95;;;;;;;2.95;100.00;103139.59;5001236;28;20859;-74
2022/01/17 06:51:58;;;;;;;22.15;7.60;;;;;;;2.87;100.00;103129.94;5002883;28;20032;-74
2022/01/17 06:54:23;;;;;;;24.50;9.10;;;;;;;2.81;100.00;103133.50;5001702;28;20037;-74
2022/01/17 06:56:48;;;;;;;25.73;8.77;;;;;;;2.83;100.00;103150.28;4985988;28;20112;-75
2022/01/17 06:59:15;;;;;;;37.08;10.98;;;;;;;3.17;100.00;103157.09;4986565;28;20476;-77
2022/01/17 07:01:41;;;;;;;47.28;14.98;;;;;;;3.36;100.00;103173.72;4987342;28;20036;-76
2022/01/17 07:04:06;;;;;;;30.10;9.68;;;;;;;3.33;100.00;103165.78;4998743;28;20376;-76
2022/01/17 07:06:32;;;;;;;36.33;12.57;;;;;;;3.49;100.00;103155.88;4999615;28;20503;-76
2022/01/17 07:08:57;;;;;;;34.25;11.88;;;;;;;3.43;100.00;103184.28;4999824;28;20504;-77
2022/01/17 07:11:23;;;;;;;35.53;10.75;;;;;;;3.32;100.00;103188.81;4987788;28;20030;-77
2022/01/17 07:13:48;;;;;;;36.88;12.25;;;;;;;3.48;100.00;103175.38;5003088;28;20034;-77
2022/01/17 07:16:14;;;;;;;28.30;11.00;;;;;;;3.39;100.00;103176.34;5003884;28;20033;-76
2022/01/17 07:18:39;;;;;;;30.02;11.30;;;;;;;3.30;100.00;103179.97;4999214;28;20121;-76
2022/01/17 07:21:04;;;;;;;27.77;11.07;;;;;;;3.22;100.00;103166.78;4986025;28;20623;-77
2022/01/17 07:23:30;;;;;;;33.08;13.70;;;;;;;3.26;100.00;103171.19;4984421;28;20045;-78
2022/01/17 07:25:55;;;;;;;35.50;12.73;;;;;;;3.36;100.00;103164.00;5002347;28;20567;-77
2022/01/17 07:28:21;;;;;;;31.42;11.20;;;;;;;3.31;100.00;103157.84;4984202;28;20045;-77
2022/01/17 07:30:46;;;;;;;41.05;14.25;;;;;;;3.42;100.00;103155.06;4986988;28;20064;-76
2022/01/17 07:33:11;;;;;;;31.08;12.32;;;;;;;3.37;100.00;103176.38;5002991;28;20049;-71
2022/01/17 07:35:37;;;;;;;36.13;12.45;;;;;;;3.33;100.00;103179.94;5000842;28;20026;-73
2022/01/17 07:38:04;;;;;;;32.85;11.98;;;;;;;3.35;100.00;103191.44;5004507;28;20064;-73
2022/01/17 07:40:29;;;;;;;38.05;13.13;;;;;;;3.30;100.00;103195.91;4985547;28;20121;-74
2022/01/17 07:42:55;;;;;;;51.05;17.80;;;;;;;3.57;100.00;103205.41;5005003;28;20488;-76
2022/01/17 07:45:20;;;;;;;43.40;13.38;;;;;;;3.61;100.00;103206.25;4998897;28;20125;-75
2022/01/17 07:50:21;;;;;;;46.03;14.82;;;;;;;3.66;100.00;103180.50;4998997;28;20026;-74
2022/01/17 07:52:47;;;;;;;62.35;21.77;;;;;;;3.89;100.00;103182.00;4983632;28;20444;-75
2022/01/17 07:55:13;;;;;;;73.50;23.85;;;;;;;4.04;100.00;103168.53;4999597;28;20487;-76
2022/01/17 07:57:41;;;;;;;47.15;15.80;;;;;;;4.00;100.00;103203.16;5004815;28;20408;-73
2022/01/17 08:00:09;;;;;;;53.88;18.27;;;;;;;3.96;100.00;103197.00;4984375;28;20038;-75
2022/01/17 08:02:34;;;;;;;58.40;20.38;;;;;;;3.91;100.00;103196.16;4997968;28;20285;-76
2022/01/17 08:05:00;;;;;;;40.17;14.57;;;;;;;4.03;100.00;103198.66;5001984;28;20048;-74
2022/01/17 08:07:25;;;;;;;42.85;15.13;;;;;;;4.00;100.00;103214.63;5002681;28;20026;-74
2022/01/17 08:09:50;;;;;;;37.28;13.38;;;;;;;3.98;100.00;103204.94;5005626;28;20125;-74
2022/01/17 08:12:16;;;;;;;43.35;14.20;;;;;;;4.00;100.00;103219.97;4985470;28;20152;-74
2022/01/17 08:14:41;;;;;;;35.28;14.57;;;;;;;3.97;100.00;103205.84;4999347;28;20033;-75
2022/01/17 08:17:07;;;;;;;34.50;14.30;;;;;;;3.96;100.00;103214.72;4984501;28;20030;-73
2022/01/17 08:19:32;;;;;;;38.97;14.45;;;;;;;4.09;100.00;103212.78;4996864;28;20021;-71
2022/01/17 08:22:03;;;;;;;43.83;15.60;;;;;;;4.04;100.00;103216.38;4998415;28;20077;-73
2022/01/17 08:24:28;;;;;;;42.83;14.35;;;;;;;4.04;100.00;103215.50;4996167;28;20034;-74
2022/01/17 08:26:54;;;;;;;57.20;18.63;;;;;;;4.19;100.00;103217.97;4987417;28;20034;-75
2022/01/17 08:29:22;;;;;;;43.83;16.10;;;;;;;4.26;100.00;103208.13;4984416;28;20040;-75
2022/01/17 08:31:47;;;;;;;34.17;12.65;;;;;;;4.23;100.00;103207.28;4996496;28;20029;-72
2022/01/17 08:34:14;;;;;;;46.75;14.75;;;;;;;4.27;100.00;103247.13;4998021;28;20057;-72
2022/01/17 08:36:39;;;;;;;40.42;15.88;;;;;;;4.28;100.00;103234.72;4985485;28;20033;-75
2022/01/17 08:39:06;;;;;;;49.33;14.80;;;;;;;4.27;100.00;103219.66;4984826;28;20029;-75
2022/01/17 08:41:32;;;;;;;36.50;14.90;;;;;;;4.30;100.00;103219.63;4999816;28;20033;-74
2022/01/17 08:43:57;;;;;;;38.60;13.80;;;;;;;4.31;100.00;103216.06;5009227;28;21112;-77
2022/01/17 08:46:22;;;;;;;38.80;12.85;;;;;;;4.44;100.00;103214.09;4983415;28;20041;-73
2022/01/17 08:48:48;;;;;;;33.53;14.30;;;;;;;4.53;100.00;103215.75;5011337;28;20041;-76
2022/01/17 08:51:13;;;;;;;49.97;16.35;;;;;;;4.53;100.00;103207.78;4984424;28;20034;-77
2022/01/17 08:53:38;;;;;;;34.25;14.32;;;;;;;4.68;100.00;103199.56;4990759;28;20060;-77
2022/01/17 08:56:04;;;;;;;43.42;12.48;;;;;;;4.87;100.00;103221.44;4997102;28;20037;-74
2022/01/17 08:58:29;;;;;;;35.85;12.98;;;;;;;4.80;100.00;103223.34;4989867;28;20025;-74
2022/01/17 09:00:56;;;;;;;41.95;15.20;;;;;;;4.97;100.00;103216.00;4986096;28;20025;-73
2022/01/17 09:03:23;;;;;;;28.60;12.70;;;;;;;4.86;100.00;103225.00;5003852;28;20057;-73
2022/01/17 09:05:48;;;;;;;38.20;11.90;;;;;;;4.76;100.00;103221.63;4988215;28;20049;-73
2022/01/17 09:08:14;;;;;;;32.67;12.20;;;;;;;4.91;100.00;103228.50;4983219;28;20029;-72
2022/01/17 09:10:39;;;;;;;38.25;13.40;;;;;;;5.03;100.00;103226.56;4983863;28;20072;-74
2022/01/17 09:13:05;;;;;;;35.33;12.65;;;;;;;5.13;100.00;103245.91;4988986;28;20022;-74
2022/01/17 09:15:30;;;;;;;37.05;12.27;;;;;;;5.17;100.00;103250.25;5005253;28;20108;-75
2022/01/17 09:17:56;;;;;;;29.02;11.27;;;;;;;5.16;100.00;103248.53;5004709;28;20567;-74
2022/01/17 09:20:21;;;;;;;28.73;11.98;;;;;;;5.09;100.00;103256.63;4981516;28;20279;-77
2022/01/17 09:22:47;;;;;;;22.73;8.10;;;;;;;5.20;100.00;103252.88;4981809;28;20030;-72
2022/01/17 09:25:12;;;;;;;28.60;10.32;;;;;;;5.16;100.00;103241.41;4998584;28;20037;-73
2022/01/17 09:27:38;;;;;;;30.00;9.43;;;;;;;5.19;100.00;103262.66;5004399;28;20595;-72
2022/01/17 09:30:08;;;;;;;37.45;13.70;;;;;;;5.33;100.00;103257.13;4987964;28;20037;-76
2022/01/17 09:32:33;;;;;;;25.15;11.40;;;;;;;5.09;100.00;103250.41;5006072;28;20038;-73
2022/01/17 09:34:58;;;;;;;26.95;9.88;;;;;;;5.22;100.00;103270.63;5001577;28;20041;-70
2022/01/17 09:37:24;;;;;;;23.63;9.80;;;;;;;5.09;100.00;103243.31;4998890;28;20061;-76
2022/01/17 09:39:49;;;;;;;25.80;11.55;;;;;;;5.19;100.00;103273.31;4987321;28;20072;-74
2022/01/17 09:42:15;;;;;;;24.17;10.05;;;;;;;5.19;100.00;103251.13;4997831;28;20044;-74
2022/01/17 09:44:40;;;;;;;29.75;10.38;;;;;;;5.18;100.00;103271.56;5002168;28;20052;-74
2022/01/17 09:47:07;;;;;;;26.77;8.93;;;;;;;5.33;100.00;103288.19;4999381;28;20041;-74
2022/01/17 09:49:37;;;;;;;29.15;9.13;;;;;;;5.35;100.00;103289.03;4982744;28;20099;-75
2022/01/17 09:52:12;;;;;;;20.65;8.82;;;;;;;5.43;100.00;103299.59;4983298;28;20164;-74
2022/01/17 09:54:39;;;;;;;17.00;6.20;;;;;;;5.38;100.00;103302.31;4986283;28;20025;-75
2022/01/17 09:57:07;;;;;;;22.10;8.38;;;;;;;5.35;100.00;103305.94;4983778;28;20030;-74
2022/01/17 09:59:33;;;;;;;26.65;9.45;;;;;;;5.36;100.00;103305.03;5000059;28;20469;-77
2022/01/17 10:01:59;;;;;;;25.85;7.90;;;;;;;5.39;100.00;103328.97;5000546;28;20030;-76
2022/01/17 10:04:25;;;;;;;25.00;8.15;;;;;;;5.34;100.00;103300.59;4998844;28;20075;-73
2022/01/17 10:06:55;;;;;;;22.42;8.65;;;;;;;5.37;100.00;103319.22;4981749;28;20030;-74
2022/01/17 10:09:21;;;;;;;27.75;8.55;;;;;;;5.41;100.00;103320.94;5002663;28;20484;-70
2022/01/17 10:12:12;;;;;;;26.75;8.98;;;;;;;5.29;100.00;103305.16;4987464;28;20524;-75
2022/01/17 10:14:40;;;;;;;19.17;7.05;;;;;;;5.48;100.00;103317.25;5013726;28;20463;-72
2022/01/17 10:17:08;;;;;;;23.33;7.18;;;;;;;5.53;100.00;103326.06;4996704;28;20080;-73
2022/01/17 10:19:34;;;;;;;22.73;7.22;;;;;;;5.51;100.00;103318.97;5001054;28;20030;-73
2022/01/17 10:22:02;;;;;;;31.38;8.40;;;;;;;5.51;100.00;103311.00;4988262;28;20061;-74
2022/01/17 10:27:58;;;;;;;68.72;28.17;;;;;;;5.58;100.00;103317.97;4935604;28;20042;-73
2022/01/17 10:30:51;;;;;;;16.75;6.75;;;;;;;5.66;100.00;103305.41;4985156;28;20149;-73
2022/01/17 10:36:00;;;;;;;33.42;10.40;;;;;;;5.75;100.00;103308.81;5002191;28;21305;-73
2022/01/17 10:38:27;;;;;;;36.58;11.50;;;;;;;5.77;100.00;103325.66;4984547;28;20029;-72
2022/01/17 10:40:59;;;;;;;59.03;19.30;;;;;;;5.82;100.00;103335.34;5000727;28;20423;-74
2022/01/17 10:43:38;;;;;;;79.97;26.73;;;;;;;5.56;100.00;103326.00;5012771;28;20485;-72
2022/01/17 10:46:06;;;;;;;25.65;8.00;;;;;;;5.54;100.00;103318.94;5006364;28;20041;-71
2022/01/17 10:48:34;;;;;;;20.55;6.03;;;;;;;5.68;100.00;103340.91;4982839;28;20029;-72
2022/01/17 10:51:00;;;;;;;21.33;7.63;;;;;;;5.69;100.00;103328.47;4997174;28;20129;-71
2022/01/17 10:53:26;;;;;;;22.95;7.47;;;;;;;5.69;100.00;103318.66;4984335;28;20064;-72
2022/01/17 10:55:53;;;;;;;25.67;7.50;;;;;;;5.73;100.00;103332.84;4984606;28;20022;-74
2022/01/17 10:58:28;;;;;;;26.30;6.82;;;;;;;5.66;100.00;103345.41;5002296;28;20028;-75
2022/01/17 11:01:06;;;;;;;19.27;5.88;;;;;;;5.76;100.00;103343.44;4997126;28;20034;-73
2022/01/17 11:03:33;;;;;;;19.75;6.43;;;;;;;5.76;100.00;103335.44;5012491;28;20065;-73
2022/01/17 11:06:02;;;;;;;17.60;6.32;;;;;;;5.82;100.00;103361.13;5001627;28;20034;-75
2022/01/17 11:08:29;;;;;;;27.55;6.35;;;;;;;5.94;100.00;103358.25;4999737;28;20509;-73
2022/01/17 11:10:57;;;;;;;29.55;7.40;;;;;;;5.95;100.00;103361.78;5004268;28;20018;-73
2022/01/17 11:13:27;;;;;;;26.65;7.93;;;;;;;5.90;100.00;103355.66;5004042;28;20104;-72
2022/01/17 11:15:55;;;;;;;20.25;5.00;;;;;;;5.95;100.00;103352.00;4996677;28;20484;-73
2022/01/17 11:18:25;;;;;;;31.92;6.07;;;;;;;6.04;100.00;103355.44;5014396;28;20033;-71
2022/01/17 11:21:03;;;;;;;24.38;6.50;;;;;;;6.06;100.00;103369.63;4999984;28;20051;-74
2022/01/17 11:23:28;;;;;;;15.75;5.28;;;;;;;6.16;100.00;103363.22;5015479;28;20881;-75
2022/01/17 11:25:55;;;;;;;29.50;7.28;;;;;;;6.03;100.00;103348.34;5003622;28;20128;-73
2022/01/17 11:28:23;;;;;;;32.20;10.20;;;;;;;6.17;100.00;103351.66;4987727;28;20022;-75
2022/01/17 11:30:52;;;;;;;22.95;7.35;;;;;;;6.06;100.00;103346.50;4985673;28;20454;-76
2022/01/17 11:33:17;;;;;;;22.08;5.32;;;;;;;6.10;100.00;103333.97;4999935;28;20029;-71
2022/01/17 11:35:45;;;;;;;27.23;6.00;;;;;;;6.06;100.00;103340.28;5002142;28;20086;-75